Time,TemperatureF,DewpointF,PressureIn,WindDirection,WindDirectionDegrees,WindSpeedMPH,WindSpeedGustMPH,Humidity,HourlyPrecipIn,Conditions,Clouds,dailyrainin,SoftwareType,DateUTC
2013-04-07 00:02:00,5.4,-9.0,29.66,NE,41,2.0,6.0,52,0.00,,,0.00,weatherlink.com 1.10,2013-04-07 08:02:00,
2013-04-07 00:38:00,6.1,-8.0,29.67,NE,51,0.0,8.0,52,0.00,,,0.00,weatherlink.com 1.10,2013-04-07 08:38:00,
2013-04-07 00:43:00,6.2,-8.0,29.67,NNW,346,2.0,8.0,52,0.00,,,0.00,weatherlink.com 1.10,2013-04-07 08:43:00,
2013-04-07 01:44:00,6.6,-7.0,29.66,ENE,63,0.0,4.0,53,0.00,,,0.00,weatherlink.com 1.10,2013-04-07 09:44:00,
2013-04-07 01:59:00,6.2,-7.0,29.66,NE,41,0.0,1.0,54,0.00,,,0.00,weatherlink.com 1.10,2013-04-07 09:59:00,
2013-04-07 02:14:00,6.0,-8.0,29.66,North,6,0.0,0.0,54,0.00,,,0.00,weatherlink.com 1.10,2013-04-07 10:14:00,
2013-04-07 02:29:00,5.9,-7.0,29.67,SW,214,0.0,1.0,56,0.00,,,0.00,weatherlink.com 1.10,2013-04-07 10:29:00,
2013-04-07 02:44:00,5.7,-8.0,29.67,SW,214,0.0,0.0,54,0.00,,,0.00,weatherlink.com 1.10,2013-04-07 10:44:00,
2013-04-07 02:59:00,5.3,-7.0,29.67,SW,214,0.0,1.0,57,0.00,,,0.00,weatherlink.com 1.10,2013-04-07 10:59:00,
2013-04-07 03:14:00,5.2,-6.0,29.67,SW,214,0.0,0.0,59,0.00,,,0.00,weatherlink.com 1.10,2013-04-07 11:14:00,
2013-04-07 03:44:00,5.5,-6.0,29.67,NNW,333,0.0,0.0,58,0.00,,,0.00,weatherlink.com 1.10,2013-04-07 11:44:00,
2013-04-07 03:59:00,5.5,-6.0,29.68,WNW,295,1.0,1.0,60,0.00,,,0.00,weatherlink.com 1.10,2013-04-07 11:59:00,
2013-04-07 04:14:00,5.4,-5.0,29.68,West,267,0.0,1.0,63,0.00,,,0.00,weatherlink.com 1.10,2013-04-07 12:14:00,
2013-04-07 04:29:00,5.1,-3.0,29.67,West,263,0.0,0.0,68,0.00,,,0.00,weatherlink.com 1.10,2013-04-07 12:29:00,
2013-04-07 04:44:00,5.0,-3.0,29.67,West,263,0.0,0.0,70,0.00,,,0.00,weatherlink.com 1.10,2013-04-07 12:44:00,
2013-04-07 04:59:00,4.8,-2.0,29.68,West,263,1.0,1.0,74,0.00,,,0.00,weatherlink.com 1.10,2013-04-07 12:59:00,
2013-04-07 05:15:00,4.4,-1.0,29.68,West,270,0.0,1.0,77,0.00,,,0.00,weatherlink.com 1.10,2013-04-07 13:15:00,
2013-04-07 05:30:00,4.4,-1.0,29.68,West,270,0.0,0.0,77,0.00,,,0.00,weatherlink.com 1.10,2013-04-07 13:30:00,
2013-04-07 05:45:00,4.1,-1.0,29.68,SE,136,0.0,1.0,78,0.00,,,0.00,weatherlink.com 1.10,2013-04-07 13:45:00,
2013-04-07 06:00:00,3.5,-1.0,29.69,ESE,118,1.0,2.0,81,0.00,,,0.00,weatherlink.com 1.10,2013-04-07 14:00:00,
2013-04-07 06:15:00,2.9,-1.0,29.69,ESE,117,1.0,2.0,82,0.00,,,0.00,weatherlink.com 1.10,2013-04-07 14:15:00,
2013-04-07 06:30:00,1.8,-2.0,29.70,SSE,148,2.0,4.0,83,0.00,,,0.00,weatherlink.com 1.10,2013-04-07 14:30:00,
2013-04-07 06:45:00,1.6,-2.0,29.70,SE,146,0.0,2.0,83,0.00,,,0.00,weatherlink.com 1.10,2013-04-07 14:45:00,
2013-04-07 07:00:00,1.5,-3.0,29.70,SE,132,0.0,1.0,83,0.00,,,0.00,weatherlink.com 1.10,2013-04-07 15:00:00,
2013-04-07 07:15:00,1.5,-2.0,29.70,East,94,2.0,2.0,84,0.00,,,0.00,weatherlink.com 1.10,2013-04-07 15:15:00,
2013-04-07 07:30:00,1.7,-2.0,29.71,ESE,118,2.0,3.0,84,0.00,,,0.00,weatherlink.com 1.10,2013-04-07 15:30:00,
2013-04-07 07:45:00,1.7,-2.0,29.71,SSE,147,1.0,2.0,84,0.00,,,0.00,weatherlink.com 1.10,2013-04-07 15:45:00,
2013-04-07 08:00:00,1.5,-3.0,29.71,SE,134,0.0,2.0,83,0.00,,,0.00,weatherlink.com 1.10,2013-04-07 16:00:00,
2013-04-07 08:16:00,1.5,-3.0,29.72,SE,146,2.0,2.0,83,0.00,,,0.00,weatherlink.com 1.10,2013-04-07 16:16:00,
2013-04-07 08:31:00,1.6,-2.0,29.72,SSE,150,1.0,2.0,84,0.00,,,0.00,weatherlink.com 1.10,2013-04-07 16:31:00,
2013-04-07 08:46:00,2.0,-2.0,29.72,SE,132,0.0,2.0,83,0.00,,,0.00,weatherlink.com 1.10,2013-04-07 16:46:00,
2013-04-07 09:01:00,2.0,-2.0,29.73,SE,145,1.0,2.0,82,0.00,,,0.00,weatherlink.com 1.10,2013-04-07 17:01:00,
2013-04-07 09:31:00,2.0,-3.0,29.73,SE,134,0.0,1.0,81,0.00,,,0.00,weatherlink.com 1.10,2013-04-07 17:31:00,
2013-04-07 09:46:00,2.5,-2.0,29.74,SSE,147,0.0,2.0,81,0.00,,,0.00,weatherlink.com 1.10,2013-04-07 17:46:00,
2013-04-07 10:01:00,2.7,-2.0,29.74,SE,146,1.0,1.0,81,0.00,,,0.00,weatherlink.com 1.10,2013-04-07 18:01:00,
2013-04-07 10:16:00,2.6,-3.0,29.74,ESE,114,1.0,2.0,79,0.00,,,0.00,weatherlink.com 1.10,2013-04-07 18:16:00,
2013-04-07 10:46:00,3.6,-2.0,29.76,SW,226,0.0,1.0,79,0.00,,,0.00,weatherlink.com 1.10,2013-04-07 18:46:00,
2013-04-07 11:01:00,2.9,-2.0,29.75,WNW,299,0.0,3.0,79,0.00,,,0.00,weatherlink.com 1.10,2013-04-07 19:01:00,
2013-04-07 11:16:00,3.3,-2.0,29.76,ESE,123,1.0,2.0,80,0.00,,,0.00,weatherlink.com 1.10,2013-04-07 19:16:00,
2013-04-07 11:31:00,4.3,-1.0,29.76,WNW,283,0.0,1.0,78,0.00,,,0.00,weatherlink.com 1.10,2013-04-07 19:31:00,
2013-04-07 11:46:00,4.9,-1.0,29.76,WSW,239,1.0,2.0,77,0.00,,,0.00,weatherlink.com 1.10,2013-04-07 19:46:00,
2013-04-07 12:02:00,4.6,-1.0,29.77,SW,232,2.0,3.0,78,0.00,,,0.00,weatherlink.com 1.10,2013-04-07 20:02:00,
2013-04-07 12:17:00,4.6,-1.0,29.77,SSW,204,1.0,2.0,78,0.00,,,0.00,weatherlink.com 1.10,2013-04-07 20:17:00,
2013-04-07 12:32:00,4.9,-1.0,29.77,SSW,211,0.0,2.0,78,0.00,,,0.00,weatherlink.com 1.10,2013-04-07 20:32:00,
2013-04-07 12:47:00,5.5,0.0,29.78,NW,319,0.0,3.0,78,0.00,,,0.00,weatherlink.com 1.10,2013-04-07 20:47:00,
2013-04-07 13:02:00,5.9,0.0,29.78,West,263,0.0,2.0,78,0.00,,,0.00,weatherlink.com 1.10,2013-04-07 21:02:00,
2013-04-07 13:17:00,5.4,-1.0,29.78,West,273,3.0,5.0,76,0.00,,,0.00,weatherlink.com 1.10,2013-04-07 21:17:00,
2013-04-07 13:32:00,6.2,0.0,29.78,West,267,0.0,3.0,77,0.00,,,0.00,weatherlink.com 1.10,2013-04-07 21:32:00,
2013-04-07 13:47:00,6.8,1.0,29.78,WSW,255,2.0,4.0,75,0.00,,,0.00,weatherlink.com 1.10,2013-04-07 21:47:00,
2013-04-07 14:02:00,7.5,1.0,29.78,West,262,1.0,3.0,73,0.00,,,0.00,weatherlink.com 1.10,2013-04-07 22:02:00,
2013-04-07 14:17:00,7.3,0.0,29.78,West,266,1.0,3.0,72,0.00,,,0.00,weatherlink.com 1.10,2013-04-07 22:17:00,
2013-04-07 14:32:00,7.1,0.0,29.79,West,271,2.0,4.0,72,0.00,,,0.00,weatherlink.com 1.10,2013-04-07 22:32:00,
2013-04-07 14:47:00,7.0,0.0,29.79,WNW,298,3.0,5.0,73,0.00,,,0.00,weatherlink.com 1.10,2013-04-07 22:47:00,
2013-04-07 15:02:00,6.8,0.0,29.80,West,271,1.0,3.0,74,0.00,,,0.00,weatherlink.com 1.10,2013-04-07 23:02:00,
2013-04-07 15:17:00,7.0,0.0,29.79,WNW,283,1.0,3.0,73,0.00,,,0.00,weatherlink.com 1.10,2013-04-07 23:17:00,
2013-04-07 15:33:00,7.1,0.0,29.80,WSW,256,0.0,3.0,74,0.00,,,0.00,weatherlink.com 1.10,2013-04-07 23:33:00,
2013-04-07 15:48:00,7.2,1.0,29.80,WNW,291,0.0,3.0,74,0.00,,,0.00,weatherlink.com 1.10,2013-04-07 23:48:00,
2013-04-07 16:03:00,6.9,0.0,29.80,West,276,2.0,4.0,74,0.00,,,0.00,weatherlink.com 1.10,2013-04-08 00:03:00,
2013-04-07 16:18:00,7.0,1.0,29.80,WNW,283,0.0,3.0,77,0.00,,,0.00,weatherlink.com 1.10,2013-04-08 00:18:00,
2013-04-07 16:33:00,6.6,1.0,29.81,West,267,2.0,3.0,79,0.00,,,0.00,weatherlink.com 1.10,2013-04-08 00:33:00,
2013-04-07 16:48:00,6.7,1.0,29.81,WSW,250,1.0,4.0,77,0.00,,,0.00,weatherlink.com 1.10,2013-04-08 00:48:00,
2013-04-07 17:03:00,6.3,1.0,29.82,West,266,1.0,5.0,79,0.00,,,0.00,weatherlink.com 1.10,2013-04-08 01:03:00,
2013-04-07 17:18:00,6.4,2.0,29.81,West,272,2.0,4.0,80,0.00,,,0.00,weatherlink.com 1.10,2013-04-08 01:18:00,
2013-04-07 17:48:00,6.2,1.0,29.83,West,280,0.0,4.0,79,0.00,,,0.00,weatherlink.com 1.10,2013-04-08 01:48:00,
2013-04-07 18:33:00,6.6,2.0,29.84,West,264,1.0,1.0,81,0.00,,,0.00,weatherlink.com 1.10,2013-04-08 02:33:00,
2013-04-07 18:49:00,6.5,2.0,29.84,WSW,255,1.0,1.0,81,0.00,,,0.00,weatherlink.com 1.10,2013-04-08 02:49:00,
2013-04-07 19:04:00,6.7,1.0,29.84,WNW,290,0.0,1.0,78,0.00,,,0.00,weatherlink.com 1.10,2013-04-08 03:04:00,
2013-04-07 19:34:00,8.3,1.0,29.85,WSW,248,0.0,1.0,72,0.00,,,0.00,weatherlink.com 1.10,2013-04-08 03:34:00,
2013-04-07 19:49:00,8.0,0.0,29.86,South,174,0.0,3.0,71,0.00,,,0.00,weatherlink.com 1.10,2013-04-08 03:49:00,
2013-04-07 20:04:00,7.3,1.0,29.86,ENE,75,1.0,2.0,76,0.00,,,0.00,weatherlink.com 1.10,2013-04-08 04:04:00,
2013-04-07 20:19:00,6.3,1.0,29.87,ESE,112,0.0,2.0,80,0.00,,,0.00,weatherlink.com 1.10,2013-04-08 04:19:00,
2013-04-07 20:34:00,6.0,2.0,29.87,ESE,113,2.0,2.0,82,0.00,,,0.00,weatherlink.com 1.10,2013-04-08 04:34:00,
2013-04-07 20:49:00,5.6,2.0,29.88,ESE,103,1.0,3.0,84,0.00,,,0.00,weatherlink.com 1.10,2013-04-08 04:49:00,
2013-04-07 21:04:00,5.1,2.0,29.88,ESE,105,0.0,1.0,85,0.00,,,0.00,weatherlink.com 1.10,2013-04-08 05:04:00,
2013-04-07 21:19:00,4.6,1.0,29.89,East,96,1.0,2.0,85,0.00,,,0.00,weatherlink.com 1.10,2013-04-08 05:19:00,
2013-04-07 21:34:00,4.3,1.0,29.89,East,94,1.0,2.0,86,0.00,,,0.00,weatherlink.com 1.10,2013-04-08 05:34:00,
2013-04-07 21:49:00,4.1,1.0,29.90,ESE,111,0.0,1.0,85,0.00,,,0.00,weatherlink.com 1.10,2013-04-08 05:49:00,
2013-04-07 22:04:00,3.9,0.0,29.90,ESE,113,0.0,1.0,83,0.00,,,0.00,weatherlink.com 1.10,2013-04-08 06:04:00,
2013-04-07 22:20:00,3.4,0.0,29.91,ESE,113,0.0,0.0,84,0.00,,,0.00,weatherlink.com 1.10,2013-04-08 06:20:00,
2013-04-07 22:35:00,3.3,0.0,29.91,ESE,113,0.0,0.0,85,0.00,,,0.00,weatherlink.com 1.10,2013-04-08 06:35:00,
2013-04-07 22:50:00,3.2,0.0,29.92,ESE,113,0.0,0.0,85,0.00,,,0.00,weatherlink.com 1.10,2013-04-08 06:50:00,
2013-04-07 23:05:00,2.1,-1.0,29.91,ESE,112,0.0,0.0,86,0.00,,,0.00,weatherlink.com 1.10,2013-04-08 07:05:00,
2013-04-07 23:20:00,2.2,-1.0,29.92,ESE,112,0.0,0.0,85,0.00,,,0.00,weatherlink.com 1.10,2013-04-08 07:20:00,
2013-04-07 23:35:00,2.4,-1.0,29.92,ESE,111,0.0,0.0,86,0.00,,,0.00,weatherlink.com 1.10,2013-04-08 07:35:00,
2013-04-07 23:50:00,2.2,-1.0,29.93,ENE,74,4.0,4.0,86,0.00,,,0.00,weatherlink.com 1.10,2013-04-08 07:50:00,